sensor_id;sensor_type;location;lat;lon;timestamp;pressure;altitude;pressure_sealevel;temperature;humidity
68634;BME280;55625;47.072;22.192;2022-09-29T00:01:30;98544.78;;;12.14;93.37
68634;BME280;55625;47.072;22.192;2022-09-29T00:03:55;98544.00;;;12.13;92.72
68634;BME280;55625;47.072;22.192;2022-09-29T00:06:21;98545.16;;;12.22;91.86
68634;BME280;55625;47.072;22.192;2022-09-29T00:08:48;98541.03;;;12.23;91.19
68634;BME280;55625;47.072;22.192;2022-09-29T00:11:17;98543.59;;;12.21;90.88
68634;BME280;55625;47.072;22.192;2022-09-29T00:13:44;98540.47;;;12.19;91.12
68634;BME280;55625;47.072;22.192;2022-09-29T00:16:11;98545.16;;;12.22;91.47
68634;BME280;55625;47.072;22.192;2022-09-29T00:18:38;98539.47;;;12.22;91.13
68634;BME280;55625;47.072;22.192;2022-09-29T00:21:15;98539.31;;;12.25;91.05
68634;BME280;55625;47.072;22.192;2022-09-29T00:23:41;98526.66;;;12.26;91.15
68634;BME280;55625;47.072;22.192;2022-09-29T00:26:17;98529.50;;;12.26;91.05
68634;BME280;55625;47.072;22.192;2022-09-29T00:28:53;98527.44;;;12.27;91.33
68634;BME280;55625;47.072;22.192;2022-09-29T00:31:25;98542.44;;;12.27;91.26
68634;BME280;55625;47.072;22.192;2022-09-29T00:33:52;98540.66;;;12.30;91.43
68634;BME280;55625;47.072;22.192;2022-09-29T00:36:20;98526.16;;;12.28;91.54
68634;BME280;55625;47.072;22.192;2022-09-29T00:38:47;98527.44;;;12.27;92.60
68634;BME280;55625;47.072;22.192;2022-09-29T00:41:23;98548.63;;;12.26;92.53
68634;BME280;55625;47.072;22.192;2022-09-29T00:43:54;98549.69;;;12.28;92.46
68634;BME280;55625;47.072;22.192;2022-09-29T00:49:28;98547.63;;;12.29;92.77
68634;BME280;55625;47.072;22.192;2022-09-29T00:52:07;98539.09;;;12.29;92.91
68634;BME280;55625;47.072;22.192;2022-09-29T00:54:54;98545.34;;;12.33;92.65
68634;BME280;55625;47.072;22.192;2022-09-29T00:57:25;98536.53;;;12.31;93.74
68634;BME280;55625;47.072;22.192;2022-09-29T01:00:13;98546.34;;;12.30;93.70
68634;BME280;55625;47.072;22.192;2022-09-29T01:02:54;98547.91;;;12.31;93.93
68634;BME280;55625;47.072;22.192;2022-09-29T01:05:34;98552.53;;;12.28;94.17
68634;BME280;55625;47.072;22.192;2022-09-29T01:10:53;98546.34;;;12.30;94.42
68634;BME280;55625;47.072;22.192;2022-09-29T01:13:19;98535.53;;;12.34;94.13
68634;BME280;55625;47.072;22.192;2022-09-29T01:15:45;98541.31;;;12.39;94.29
68634;BME280;55625;47.072;22.192;2022-09-29T01:18:11;98528.84;;;12.37;95.09
68634;BME280;55625;47.072;22.192;2022-09-29T01:20:56;98528.28;;;12.33;95.85
68634;BME280;55625;47.072;22.192;2022-09-29T01:27:06;98528.56;;;12.35;96.55
68634;BME280;55625;47.072;22.192;2022-09-29T01:30:25;98512.00;;;12.33;97.28
68634;BME280;55625;47.072;22.192;2022-09-29T01:36:21;98502.41;;;12.31;97.31
68634;BME280;55625;47.072;22.192;2022-09-29T01:41:22;98500.81;;;12.30;96.25
68634;BME280;55625;47.072;22.192;2022-09-29T01:47:04;98514.78;;;12.28;95.51
68634;BME280;55625;47.072;22.192;2022-09-29T01:49:38;98522.22;;;12.25;95.05
68634;BME280;55625;47.072;22.192;2022-09-29T01:52:18;98513.31;;;12.18;95.72
68634;BME280;55625;47.072;22.192;2022-09-29T01:58:03;98497.16;;;12.09;96.70
68634;BME280;55625;47.072;22.192;2022-09-29T02:00:37;98490.09;;;12.04;96.19
68634;BME280;55625;47.072;22.192;2022-09-29T02:05:52;98496.38;;;12.08;96.45
68634;BME280;55625;47.072;22.192;2022-09-29T02:11:12;98496.66;;;12.10;96.73
68634;BME280;55625;47.072;22.192;2022-09-29T02:14:05;98496.53;;;12.20;97.01
68634;BME280;55625;47.072;22.192;2022-09-29T02:17:05;98498.78;;;12.16;97.32
68634;BME280;55625;47.072;22.192;2022-09-29T02:19:36;98503.00;;;12.20;97.91
68634;BME280;55625;47.072;22.192;2022-09-29T02:22:03;98514.16;;;12.24;97.65
68634;BME280;55625;47.072;22.192;2022-09-29T02:24:30;98506.91;;;12.23;98.15
68634;BME280;55625;47.072;22.192;2022-09-29T02:26:56;98515.06;;;12.30;96.78
68634;BME280;55625;47.072;22.192;2022-09-29T02:29:22;98518.28;;;12.23;97.52
68634;BME280;55625;47.072;22.192;2022-09-29T02:31:48;98518.41;;;12.13;98.99
68634;BME280;55625;47.072;22.192;2022-09-29T02:34:17;98511.78;;;12.02;100.00
68634;BME280;55625;47.072;22.192;2022-09-29T02:39:47;98510.13;;;11.95;100.00
68634;BME280;55625;47.072;22.192;2022-09-29T02:51:33;98483.66;;;11.74;100.00
68634;BME280;55625;47.072;22.192;2022-09-29T02:59:19;98479.25;;;11.88;100.00
68634;BME280;55625;47.072;22.192;2022-09-29T03:01:55;98491.50;;;11.94;100.00
68634;BME280;55625;47.072;22.192;2022-09-29T03:04:24;98486.28;;;12.07;100.00
68634;BME280;55625;47.072;22.192;2022-09-29T03:06:51;98493.03;;;12.10;100.00
68634;BME280;55625;47.072;22.192;2022-09-29T03:09:17;98482.50;;;12.16;100.00
68634;BME280;55625;47.072;22.192;2022-09-29T03:11:43;98464.94;;;12.18;100.00
68634;BME280;55625;47.072;22.192;2022-09-29T03:14:09;98473.78;;;12.20;100.00
68634;BME280;55625;47.072;22.192;2022-09-29T03:16:35;98457.09;;;12.27;100.00
68634;BME280;55625;47.072;22.192;2022-09-29T03:19:03;98453.25;;;12.30;100.00
68634;BME280;55625;47.072;22.192;2022-09-29T03:21:30;98464.69;;;12.36;100.00
68634;BME280;55625;47.072;22.192;2022-09-29T03:23:57;98451.63;;;12.44;100.00
68634;BME280;55625;47.072;22.192;2022-09-29T03:26:22;98450.41;;;12.51;100.00
68634;BME280;55625;47.072;22.192;2022-09-29T03:28:50;98432.63;;;12.56;100.00
68634;BME280;55625;47.072;22.192;2022-09-29T03:31:16;98432.69;;;12.61;100.00
68634;BME280;55625;47.072;22.192;2022-09-29T03:33:42;98426.50;;;12.63;100.00
68634;BME280;55625;47.072;22.192;2022-09-29T03:36:08;98427.41;;;12.74;100.00
68634;BME280;55625;47.072;22.192;2022-09-29T03:38:34;98428.13;;;12.69;100.00
68634;BME280;55625;47.072;22.192;2022-09-29T03:41:00;98418.63;;;12.78;100.00
68634;BME280;55625;47.072;22.192;2022-09-29T03:43:26;98417.84;;;12.78;99.46
68634;BME280;55625;47.072;22.192;2022-09-29T03:45:54;98415.22;;;12.74;99.36
68634;BME280;55625;47.072;22.192;2022-09-29T03:48:21;98412.38;;;12.74;100.00
68634;BME280;55625;47.072;22.192;2022-09-29T03:50:49;98416.56;;;12.79;98.61
68634;BME280;55625;47.072;22.192;2022-09-29T03:53:16;98410.47;;;12.86;98.21
68634;BME280;55625;47.072;22.192;2022-09-29T03:55:46;98428.09;;;12.90;96.75
68634;BME280;55625;47.072;22.192;2022-09-29T03:58:13;98434.03;;;12.86;97.88
68634;BME280;55625;47.072;22.192;2022-09-29T04:00:39;98428.66;;;12.94;97.72
68634;BME280;55625;47.072;22.192;2022-09-29T04:03:05;98422.25;;;12.99;95.47
68634;BME280;55625;47.072;22.192;2022-09-29T04:05:31;98422.75;;;12.97;96.46
68634;BME280;55625;47.072;22.192;2022-09-29T04:08:04;98423.69;;;12.89;97.14
68634;BME280;55625;47.072;22.192;2022-09-29T04:10:37;98423.19;;;12.90;97.46
68634;BME280;55625;47.072;22.192;2022-09-29T04:13:03;98423.19;;;12.90;98.19
68634;BME280;55625;47.072;22.192;2022-09-29T04:15:30;98425.47;;;12.86;99.42
68634;BME280;55625;47.072;22.192;2022-09-29T04:17:56;98418.69;;;12.84;100.00
68634;BME280;55625;47.072;22.192;2022-09-29T04:20:22;98422.72;;;12.71;100.00
68634;BME280;55625;47.072;22.192;2022-09-29T04:22:48;98419.25;;;12.62;100.00
68634;BME280;55625;47.072;22.192;2022-09-29T04:25:14;98420.25;;;12.59;99.89
68634;BME280;55625;47.072;22.192;2022-09-29T04:27:40;98418.88;;;12.54;99.96
68634;BME280;55625;47.072;22.192;2022-09-29T04:30:07;98418.31;;;12.50;100.00
68634;BME280;55625;47.072;22.192;2022-09-29T04:32:33;98413.06;;;12.43;100.00
68634;BME280;55625;47.072;22.192;2022-09-29T04:34:59;98415.13;;;12.42;100.00
68634;BME280;55625;47.072;22.192;2022-09-29T04:37:25;98430.69;;;12.47;100.00
68634;BME280;55625;47.072;22.192;2022-09-29T04:39:51;98420.09;;;12.48;99.69
68634;BME280;55625;47.072;22.192;2022-09-29T04:42:19;98417.53;;;12.50;99.94
68634;BME280;55625;47.072;22.192;2022-09-29T04:44:45;98425.78;;;12.48;99.03
68634;BME280;55625;47.072;22.192;2022-09-29T04:47:12;98419.31;;;12.47;98.95
68634;BME280;55625;47.072;22.192;2022-09-29T04:49:38;98421.44;;;12.52;97.06
68634;BME280;55625;47.072;22.192;2022-09-29T04:52:04;98418.59;;;12.52;97.72
68634;BME280;55625;47.072;22.192;2022-09-29T04:54:32;98417.97;;;12.63;95.92
68634;BME280;55625;47.072;22.192;2022-09-29T04:56:58;98411.75;;;12.64;95.39
68634;BME280;55625;47.072;22.192;2022-09-29T04:59:24;98411.03;;;12.69;94.50
68634;BME280;55625;47.072;22.192;2022-09-29T05:01:50;98403.28;;;12.70;94.38
68634;BME280;55625;47.072;22.192;2022-09-29T05:04:16;98398.16;;;12.74;94.59
68634;BME280;55625;47.072;22.192;2022-09-29T05:06:41;98392.56;;;12.85;93.71
68634;BME280;55625;47.072;22.192;2022-09-29T05:09:07;98396.69;;;12.84;94.13
68634;BME280;55625;47.072;22.192;2022-09-29T05:11:33;98384.84;;;12.86;92.79
68634;BME280;55625;47.072;22.192;2022-09-29T05:13:59;98383.81;;;12.89;92.33
68634;BME280;55625;47.072;22.192;2022-09-29T05:16:26;98382.59;;;12.95;92.29
68634;BME280;55625;47.072;22.192;2022-09-29T05:18:51;98365.56;;;13.01;92.24
68634;BME280;55625;47.072;22.192;2022-09-29T05:21:17;98358.56;;;13.02;91.47
68634;BME280;55625;47.072;22.192;2022-09-29T05:23:43;98365.88;;;13.09;90.53
68634;BME280;55625;47.072;22.192;2022-09-29T05:26:11;98379.59;;;13.10;90.08
68634;BME280;55625;47.072;22.192;2022-09-29T05:28:42;98388.72;;;13.14;90.31
68634;BME280;55625;47.072;22.192;2022-09-29T05:31:09;98398.41;;;13.22;89.92
68634;BME280;55625;47.072;22.192;2022-09-29T05:33:36;98389.41;;;13.29;89.89
68634;BME280;55625;47.072;22.192;2022-09-29T05:36:10;98400.28;;;13.31;90.11
68634;BME280;55625;47.072;22.192;2022-09-29T05:38:38;98402.63;;;13.32;89.50
68634;BME280;55625;47.072;22.192;2022-09-29T05:41:06;98406.53;;;13.35;91.21
68634;BME280;55625;47.072;22.192;2022-09-29T05:43:32;98410.56;;;13.49;89.94
68634;BME280;55625;47.072;22.192;2022-09-29T05:46:03;98416.53;;;13.51;90.09
68634;BME280;55625;47.072;22.192;2022-09-29T05:48:30;98414.97;;;13.50;90.79
68634;BME280;55625;47.072;22.192;2022-09-29T05:50:57;98418.66;;;13.56;91.11
68634;BME280;55625;47.072;22.192;2022-09-29T05:53:23;98425.69;;;13.60;90.33
68634;BME280;55625;47.072;22.192;2022-09-29T05:55:49;98423.09;;;13.62;89.95
68634;BME280;55625;47.072;22.192;2022-09-29T05:58:15;98426.72;;;13.63;90.01
68634;BME280;55625;47.072;22.192;2022-09-29T06:00:41;98430.88;;;13.62;89.02
68634;BME280;55625;47.072;22.192;2022-09-29T06:03:07;98424.34;;;13.56;90.92
68634;BME280;55625;47.072;22.192;2022-09-29T06:05:37;98425.38;;;13.53;91.62
68634;BME280;55625;47.072;22.192;2022-09-29T06:08:04;98425.09;;;13.51;90.30
68634;BME280;55625;47.072;22.192;2022-09-29T06:10:31;98424.31;;;13.50;90.31
68634;BME280;55625;47.072;22.192;2022-09-29T06:12:57;98424.59;;;13.52;90.90
68634;BME280;55625;47.072;22.192;2022-09-29T06:15:23;98419.44;;;13.56;90.50
68634;BME280;55625;47.072;22.192;2022-09-29T06:17:59;98424.66;;;13.63;91.44
68634;BME280;55625;47.072;22.192;2022-09-29T06:20:26;98425.47;;;13.70;91.60
68634;BME280;55625;47.072;22.192;2022-09-29T06:22:55;98431.50;;;13.77;91.88
68634;BME280;55625;47.072;22.192;2022-09-29T06:25:22;98431.34;;;13.92;90.59
68634;BME280;55625;47.072;22.192;2022-09-29T06:27:47;98430.09;;;13.98;89.87
68634;BME280;55625;47.072;22.192;2022-09-29T06:30:14;98437.66;;;14.07;89.58
68634;BME280;55625;47.072;22.192;2022-09-29T06:32:40;98441.59;;;14.10;90.17
68634;BME280;55625;47.072;22.192;2022-09-29T06:35:06;98452.69;;;14.08;89.82
68634;BME280;55625;47.072;22.192;2022-09-29T06:37:53;98437.44;;;14.11;89.03
68634;BME280;55625;47.072;22.192;2022-09-29T06:40:21;98438.44;;;14.08;89.52
68634;BME280;55625;47.072;22.192;2022-09-29T06:42:47;98451.91;;;14.07;90.02
68634;BME280;55625;47.072;22.192;2022-09-29T06:45:14;98447.28;;;14.10;90.11
68634;BME280;55625;47.072;22.192;2022-09-29T06:47:40;98442.38;;;14.10;91.12
68634;BME280;55625;47.072;22.192;2022-09-29T06:50:07;98446.00;;;14.11;91.34
68634;BME280;55625;47.072;22.192;2022-09-29T06:52:34;98448.34;;;14.12;91.52
68634;BME280;55625;47.072;22.192;2022-09-29T06:55:00;98437.22;;;14.14;91.08
68634;BME280;55625;47.072;22.192;2022-09-29T06:57:25;98440.59;;;14.18;90.98
68634;BME280;55625;47.072;22.192;2022-09-29T06:59:51;98440.63;;;14.24;91.04
68634;BME280;55625;47.072;22.192;2022-09-29T07:02:17;98442.47;;;14.33;91.17
68634;BME280;55625;47.072;22.192;2022-09-29T07:04:43;98442.59;;;14.44;90.90
68634;BME280;55625;47.072;22.192;2022-09-29T07:07:09;98447.28;;;14.52;90.38
68634;BME280;55625;47.072;22.192;2022-09-29T07:09:35;98447.06;;;14.62;90.46
68634;BME280;55625;47.072;22.192;2022-09-29T07:12:00;98446.09;;;14.76;89.75
68634;BME280;55625;47.072;22.192;2022-09-29T07:14:26;98453.91;;;14.81;89.44
68634;BME280;55625;47.072;22.192;2022-09-29T07:16:52;98445.88;;;14.90;89.86
68634;BME280;55625;47.072;22.192;2022-09-29T07:19:18;98449.03;;;15.04;90.31
68634;BME280;55625;47.072;22.192;2022-09-29T07:21:46;98444.38;;;15.17;89.10
68634;BME280;55625;47.072;22.192;2022-09-29T07:24:12;98455.09;;;15.34;88.49
68634;BME280;55625;47.072;22.192;2022-09-29T07:26:38;98457.69;;;15.48;87.73
68634;BME280;55625;47.072;22.192;2022-09-29T07:29:04;98458.78;;;15.62;87.59
68634;BME280;55625;47.072;22.192;2022-09-29T07:31:30;98452.28;;;15.78;87.30
68634;BME280;55625;47.072;22.192;2022-09-29T07:33:56;98456.44;;;15.94;87.06
68634;BME280;55625;47.072;22.192;2022-09-29T07:36:22;98473.56;;;16.11;85.74
68634;BME280;55625;47.072;22.192;2022-09-29T07:38:50;98467.00;;;16.38;84.79
68634;BME280;55625;47.072;22.192;2022-09-29T07:41:19;98482.59;;;16.60;85.80
68634;BME280;55625;47.072;22.192;2022-09-29T07:43:46;98474.88;;;17.01;84.95
68634;BME280;55625;47.072;22.192;2022-09-29T07:46:12;98467.16;;;17.32;83.89
68634;BME280;55625;47.072;22.192;2022-09-29T07:48:38;98476.06;;;17.64;84.88
68634;BME280;55625;47.072;22.192;2022-09-29T07:51:12;98476.81;;;17.76;82.71
68634;BME280;55625;47.072;22.192;2022-09-29T07:53:39;98473.19;;;17.69;82.87
68634;BME280;55625;47.072;22.192;2022-09-29T07:56:14;98487.00;;;17.65;83.64
68634;BME280;55625;47.072;22.192;2022-09-29T07:58:42;98477.38;;;17.68;83.39
68634;BME280;55625;47.072;22.192;2022-09-29T08:01:10;98482.25;;;17.79;79.63
68634;BME280;55625;47.072;22.192;2022-09-29T08:03:43;98478.59;;;17.79;76.92
68634;BME280;55625;47.072;22.192;2022-09-29T08:06:12;98484.84;;;17.83;76.66
68634;BME280;55625;47.072;22.192;2022-09-29T08:08:40;98485.31;;;17.87;77.10
68634;BME280;55625;47.072;22.192;2022-09-29T08:11:10;98487.41;;;17.86;77.95
68634;BME280;55625;47.072;22.192;2022-09-29T08:13:36;98492.75;;;18.01;74.93
68634;BME280;55625;47.072;22.192;2022-09-29T08:16:05;98482.69;;;17.89;76.36
68634;BME280;55625;47.072;22.192;2022-09-29T08:18:33;98485.16;;;17.74;76.30
68634;BME280;55625;47.072;22.192;2022-09-29T08:21:00;98486.28;;;17.59;77.32
68634;BME280;55625;47.072;22.192;2022-09-29T08:23:26;98490.75;;;17.55;76.99
68634;BME280;55625;47.072;22.192;2022-09-29T08:26:03;98482.72;;;17.48;77.79
68634;BME280;55625;47.072;22.192;2022-09-29T08:28:32;98478.09;;;17.33;77.53
68634;BME280;55625;47.072;22.192;2022-09-29T08:31:20;98486.22;;;17.29;78.30
68634;BME280;55625;47.072;22.192;2022-09-29T08:33:50;98493.00;;;17.26;77.97
68634;BME280;55625;47.072;22.192;2022-09-29T08:36:20;98487.84;;;17.19;78.06
68634;BME280;55625;47.072;22.192;2022-09-29T08:38:52;98482.38;;;17.16;78.04
68634;BME280;55625;47.072;22.192;2022-09-29T08:44:13;98489.94;;;17.13;78.37
68634;BME280;55625;47.072;22.192;2022-09-29T08:46:53;98493.28;;;17.23;78.32
68634;BME280;55625;47.072;22.192;2022-09-29T08:49:59;98492.22;;;17.26;77.82
68634;BME280;55625;47.072;22.192;2022-09-29T08:52:34;98504.84;;;17.53;77.79
68634;BME280;55625;47.072;22.192;2022-09-29T08:55:24;98494.66;;;17.93;77.26
68634;BME280;55625;47.072;22.192;2022-09-29T08:57:57;98504.78;;;18.29;76.04
68634;BME280;55625;47.072;22.192;2022-09-29T09:00:35;98491.75;;;18.53;72.91
68634;BME280;55625;47.072;22.192;2022-09-29T09:03:28;98500.03;;;18.62;74.52
68634;BME280;55625;47.072;22.192;2022-09-29T09:11:55;98520.91;;;18.38;73.43
68634;BME280;55625;47.072;22.192;2022-09-29T09:14:51;98523.63;;;18.25;73.31
68634;BME280;55625;47.072;22.192;2022-09-29T09:18:06;98522.84;;;18.24;74.00
68634;BME280;55625;47.072;22.192;2022-09-29T09:23:33;98518.56;;;18.07;74.57
68634;BME280;55625;47.072;22.192;2022-09-29T09:26:03;98529.06;;;17.98;75.35
68634;BME280;55625;47.072;22.192;2022-09-29T09:28:54;98530.56;;;18.05;75.54
68634;BME280;55625;47.072;22.192;2022-09-29T09:31:41;98529.09;;;17.93;79.50
68634;BME280;55625;47.072;22.192;2022-09-29T09:34:29;98525.31;;;17.79;81.27
68634;BME280;55625;47.072;22.192;2022-09-29T09:40:10;98536.03;;;17.73;80.41
68634;BME280;55625;47.072;22.192;2022-09-29T09:42:42;98532.41;;;17.67;78.46
68634;BME280;55625;47.072;22.192;2022-09-29T09:45:47;98539.69;;;17.74;79.57
68634;BME280;55625;47.072;22.192;2022-09-29T09:48:35;98543.91;;;17.67;81.55
68634;BME280;55625;47.072;22.192;2022-09-29T09:51:34;98528.72;;;17.78;81.90
68634;BME280;55625;47.072;22.192;2022-09-29T09:54:10;98536.94;;;17.92;81.59
68634;BME280;55625;47.072;22.192;2022-09-29T10:00:22;98540.56;;;18.28;78.77
68634;BME280;55625;47.072;22.192;2022-09-29T10:02:51;98527.91;;;18.43;75.79
68634;BME280;55625;47.072;22.192;2022-09-29T10:05:35;98536.22;;;18.46;74.55
68634;BME280;55625;47.072;22.192;2022-09-29T10:08:05;98538.56;;;18.48;76.69
68634;BME280;55625;47.072;22.192;2022-09-29T10:10:32;98539.63;;;18.45;76.63
68634;BME280;55625;47.072;22.192;2022-09-29T10:13:07;98539.88;;;18.47;75.14
68634;BME280;55625;47.072;22.192;2022-09-29T10:15:53;98537.72;;;18.53;74.83
68634;BME280;55625;47.072;22.192;2022-09-29T10:18:40;98536.81;;;18.69;74.18
68634;BME280;55625;47.072;22.192;2022-09-29T10:23:56;98529.84;;;18.83;74.00
68634;BME280;55625;47.072;22.192;2022-09-29T10:26:39;98534.63;;;19.00;73.77
68634;BME280;55625;47.072;22.192;2022-09-29T10:32:15;98538.84;;;19.17;74.37
68634;BME280;55625;47.072;22.192;2022-09-29T10:34:46;98542.28;;;19.16;72.38
68634;BME280;55625;47.072;22.192;2022-09-29T10:37:22;98532.78;;;19.21;72.66
68634;BME280;55625;47.072;22.192;2022-09-29T10:39:50;98537.53;;;19.18;73.58
68634;BME280;55625;47.072;22.192;2022-09-29T10:42:34;98539.19;;;19.33;71.38
68634;BME280;55625;47.072;22.192;2022-09-29T10:47:37;98533.97;;;19.31;71.04
68634;BME280;55625;47.072;22.192;2022-09-29T10:53:00;98546.25;;;19.50;72.29
68634;BME280;55625;47.072;22.192;2022-09-29T10:55:35;98549.06;;;19.37;71.09
68634;BME280;55625;47.072;22.192;2022-09-29T10:58:30;98553.56;;;19.33;72.39
68634;BME280;55625;47.072;22.192;2022-09-29T11:06:36;98553.28;;;19.36;72.00
68634;BME280;55625;47.072;22.192;2022-09-29T11:20:01;98556.13;;;19.61;71.12
68634;BME280;55625;47.072;22.192;2022-09-29T11:30:54;98565.41;;;19.48;69.46
68634;BME280;55625;47.072;22.192;2022-09-29T11:44:58;98565.91;;;19.71;69.84
68634;BME280;55625;47.072;22.192;2022-09-29T11:48:27;98558.88;;;19.85;70.28
68634;BME280;55625;47.072;22.192;2022-09-29T11:51:12;98563.94;;;19.79;72.49
68634;BME280;55625;47.072;22.192;2022-09-29T12:12:37;98569.75;;;20.11;70.11
68634;BME280;55625;47.072;22.192;2022-09-29T12:15:36;98568.91;;;19.97;70.16
68634;BME280;55625;47.072;22.192;2022-09-29T12:18:17;98573.31;;;19.66;72.47
68634;BME280;55625;47.072;22.192;2022-09-29T12:20:49;98573.13;;;19.59;72.56
68634;BME280;55625;47.072;22.192;2022-09-29T12:23:20;98573.91;;;19.59;72.59
68634;BME280;55625;47.072;22.192;2022-09-29T12:26:19;98573.66;;;19.38;75.04
68634;BME280;55625;47.072;22.192;2022-09-29T12:29:05;98581.16;;;19.22;75.82
68634;BME280;55625;47.072;22.192;2022-09-29T12:31:47;98578.03;;;19.20;76.89
68634;BME280;55625;47.072;22.192;2022-09-29T12:37:38;98564.25;;;19.57;76.48
68634;BME280;55625;47.072;22.192;2022-09-29T12:46:15;98566.72;;;20.03;73.58
68634;BME280;55625;47.072;22.192;2022-09-29T12:48:54;98570.44;;;20.17;72.09
68634;BME280;55625;47.072;22.192;2022-09-29T12:51:49;98563.56;;;20.20;71.30
68634;BME280;55625;47.072;22.192;2022-09-29T12:54:32;98565.00;;;20.13;71.31
68634;BME280;55625;47.072;22.192;2022-09-29T12:57:14;98560.28;;;20.29;71.33
68634;BME280;55625;47.072;22.192;2022-09-29T12:59:54;98563.31;;;20.37;71.28
68634;BME280;55625;47.072;22.192;2022-09-29T13:08:57;98561.66;;;21.00;66.95
68634;BME280;55625;47.072;22.192;2022-09-29T13:11:45;98561.41;;;20.71;67.69
68634;BME280;55625;47.072;22.192;2022-09-29T13:20:18;98563.06;;;20.80;70.68
68634;BME280;55625;47.072;22.192;2022-09-29T13:29:00;98568.44;;;21.29;68.44
68634;BME280;55625;47.072;22.192;2022-09-29T13:31:30;98571.09;;;21.14;68.43
68634;BME280;55625;47.072;22.192;2022-09-29T13:34:02;98564.88;;;20.96;67.94
68634;BME280;55625;47.072;22.192;2022-09-29T13:36:33;98572.28;;;20.78;68.81
68634;BME280;55625;47.072;22.192;2022-09-29T13:39:06;98577.75;;;20.50;70.20
68634;BME280;55625;47.072;22.192;2022-09-29T13:41:36;98575.91;;;20.21;71.90
68634;BME280;55625;47.072;22.192;2022-09-29T13:44:16;98586.03;;;20.08;74.08
68634;BME280;55625;47.072;22.192;2022-09-29T13:46:43;98583.56;;;19.99;76.43
68634;BME280;55625;47.072;22.192;2022-09-29T13:52:38;98574.94;;;19.62;81.99
68634;BME280;55625;47.072;22.192;2022-09-29T13:54:46;98582.94;;;19.69;85.27
68634;BME280;55625;47.072;22.192;2022-09-29T13:59:39;98580.13;;;19.82;84.24
68634;BME280;55625;47.072;22.192;2022-09-29T14:02:36;98583.50;;;19.67;83.76
68634;BME280;55625;47.072;22.192;2022-09-29T14:11:02;98580.25;;;19.33;84.74
68634;BME280;55625;47.072;22.192;2022-09-29T14:32:55;98577.22;;;19.44;80.21
68634;BME280;55625;47.072;22.192;2022-09-29T14:35:39;98594.75;;;19.22;81.50
68634;BME280;55625;47.072;22.192;2022-09-29T14:41:28;98592.94;;;19.00;81.94
68634;BME280;55625;47.072;22.192;2022-09-29T14:44:31;98608.06;;;18.76;86.46
68634;BME280;55625;47.072;22.192;2022-09-29T14:59:38;98689.34;;;16.53;81.38
68634;BME280;55625;47.072;22.192;2022-09-29T15:04:41;98652.97;;;15.60;86.36
68634;BME280;55625;47.072;22.192;2022-09-29T15:07:17;98649.00;;;15.46;91.98
68634;BME280;55625;47.072;22.192;2022-09-29T15:09:58;98650.53;;;15.36;94.24
68634;BME280;55625;47.072;22.192;2022-09-29T15:12:28;98653.06;;;15.29;93.46
68634;BME280;55625;47.072;22.192;2022-09-29T15:14:57;98652.53;;;15.25;93.29
68634;BME280;55625;47.072;22.192;2022-09-29T15:17:52;98656.72;;;15.29;95.18
68634;BME280;55625;47.072;22.192;2022-09-29T15:20:59;98650.50;;;15.31;96.46
68634;BME280;55625;47.072;22.192;2022-09-29T15:26:17;98658.59;;;15.43;99.63
68634;BME280;55625;47.072;22.192;2022-09-29T15:28:44;98657.09;;;15.53;100.00
68634;BME280;55625;47.072;22.192;2022-09-29T15:31:15;98655.06;;;15.60;100.00
68634;BME280;55625;47.072;22.192;2022-09-29T15:33:44;98644.69;;;15.62;100.00
68634;BME280;55625;47.072;22.192;2022-09-29T15:36:24;98648.06;;;15.66;100.00
68634;BME280;55625;47.072;22.192;2022-09-29T15:39:05;98654.06;;;15.68;100.00
68634;BME280;55625;47.072;22.192;2022-09-29T15:41:33;98647.03;;;15.69;100.00
68634;BME280;55625;47.072;22.192;2022-09-29T15:44:20;98649.13;;;15.69;100.00
68634;BME280;55625;47.072;22.192;2022-09-29T15:46:56;98653.78;;;15.66;100.00
68634;BME280;55625;47.072;22.192;2022-09-29T15:49:24;98640.78;;;15.65;100.00
68634;BME280;55625;47.072;22.192;2022-09-29T15:52:05;98645.72;;;15.65;100.00
68634;BME280;55625;47.072;22.192;2022-09-29T15:54:37;98651.44;;;15.65;100.00
68634;BME280;55625;47.072;22.192;2022-09-29T15:57:08;98653.53;;;15.64;100.00
68634;BME280;55625;47.072;22.192;2022-09-29T16:05:32;98668.63;;;15.65;100.00
68634;BME280;55625;47.072;22.192;2022-09-29T16:08:05;98672.00;;;15.63;100.00
68634;BME280;55625;47.072;22.192;2022-09-29T16:11:01;98683.94;;;15.62;100.00
68634;BME280;55625;47.072;22.192;2022-09-29T16:13:32;98688.38;;;15.63;100.00
68634;BME280;55625;47.072;22.192;2022-09-29T16:16:10;98698.47;;;15.58;100.00
68634;BME280;55625;47.072;22.192;2022-09-29T16:18:47;98694.00;;;15.57;100.00
68634;BME280;55625;47.072;22.192;2022-09-29T16:21:19;98698.16;;;15.56;100.00
68634;BME280;55625;47.072;22.192;2022-09-29T16:24:00;98700.75;;;15.54;100.00
68634;BME280;55625;47.072;22.192;2022-09-29T16:31:37;98717.34;;;15.44;100.00
68634;BME280;55625;47.072;22.192;2022-09-29T16:37:02;98721.50;;;15.43;100.00
68634;BME280;55625;47.072;22.192;2022-09-29T16:39:43;98719.16;;;15.42;100.00
68634;BME280;55625;47.072;22.192;2022-09-29T16:42:24;98718.13;;;15.39;100.00
68634;BME280;55625;47.072;22.192;2022-09-29T16:44:53;98733.44;;;15.36;100.00
68634;BME280;55625;47.072;22.192;2022-09-29T16:47:29;98731.34;;;15.31;100.00
68634;BME280;55625;47.072;22.192;2022-09-29T16:49:59;98740.69;;;15.32;100.00
68634;BME280;55625;47.072;22.192;2022-09-29T16:52:48;98755.75;;;15.32;100.00
68634;BME280;55625;47.072;22.192;2022-09-29T16:55:26;98753.13;;;15.29;100.00
68634;BME280;55625;47.072;22.192;2022-09-29T16:58:07;98747.88;;;15.21;100.00
68634;BME280;55625;47.072;22.192;2022-09-29T17:00:34;98747.34;;;15.17;100.00